sensor_id;sensor_type;location;lat;lon;timestamp;temperature;humidity
19263;DHT22;9765;52.354;20.884;2023-04-25T04:20:52;10.90;99.90
19263;DHT22;9765;52.354;20.884;2023-04-25T04:23:19;10.90;99.90
19263;DHT22;9765;52.354;20.884;2023-04-25T04:25:48;10.90;99.90
19263;DHT22;9765;52.354;20.884;2023-04-25T04:28:14;11.00;99.90
19263;DHT22;9765;52.354;20.884;2023-04-25T04:30:41;11.00;99.90
19263;DHT22;9765;52.354;20.884;2023-04-25T04:33:12;11.10;99.90
19263;DHT22;9765;52.354;20.884;2023-04-25T04:35:41;11.20;99.90
19263;DHT22;9765;52.354;20.884;2023-04-25T04:38:10;11.30;99.90
19263;DHT22;9765;52.354;20.884;2023-04-25T04:40:37;11.30;99.90
19263;DHT22;9765;52.354;20.884;2023-04-25T04:43:04;11.30;99.90
19263;DHT22;9765;52.354;20.884;2023-04-25T04:45:31;11.30;99.90
19263;DHT22;9765;52.354;20.884;2023-04-25T04:48:01;11.30;99.90
19263;DHT22;9765;52.354;20.884;2023-04-25T04:50:28;11.40;99.90
19263;DHT22;9765;52.354;20.884;2023-04-25T04:52:58;11.40;99.90
19263;DHT22;9765;52.354;20.884;2023-04-25T04:55:26;11.40;99.90
19263;DHT22;9765;52.354;20.884;2023-04-25T04:57:52;11.40;99.90
19263;DHT22;9765;52.354;20.884;2023-04-25T05:00:19;11.40;99.90
19263;DHT22;9765;52.354;20.884;2023-04-25T05:02:47;11.40;99.90
19263;DHT22;9765;52.354;20.884;2023-04-25T05:05:14;11.40;99.90
19263;DHT22;9765;52.354;20.884;2023-04-25T05:07:40;11.50;99.90
19263;DHT22;9765;52.354;20.884;2023-04-25T05:10:08;11.50;99.90
19263;DHT22;9765;52.354;20.884;2023-04-25T05:12:36;11.50;99.90
19263;DHT22;9765;52.354;20.884;2023-04-25T05:15:04;11.60;99.90
19263;DHT22;9765;52.354;20.884;2023-04-25T05:17:30;11.50;99.90
19263;DHT22;9765;52.354;20.884;2023-04-25T05:19:58;11.50;99.90
19263;DHT22;9765;52.354;20.884;2023-04-25T05:22:24;11.50;99.90
19263;DHT22;9765;52.354;20.884;2023-04-25T05:24:51;11.50;99.90
19263;DHT22;9765;52.354;20.884;2023-04-25T05:27:18;11.50;99.90
19263;DHT22;9765;52.354;20.884;2023-04-25T05:29:46;11.40;99.90
19263;DHT22;9765;52.354;20.884;2023-04-25T05:32:13;11.40;99.90
19263;DHT22;9765;52.354;20.884;2023-04-25T05:34:40;11.40;99.90
19263;DHT22;9765;52.354;20.884;2023-04-25T05:37:07;11.40;99.90
19263;DHT22;9765;52.354;20.884;2023-04-25T05:39:34;11.40;99.90
19263;DHT22;9765;52.354;20.884;2023-04-25T05:42:00;11.50;99.90
19263;DHT22;9765;52.354;20.884;2023-04-25T05:44:29;11.40;99.90
19263;DHT22;9765;52.354;20.884;2023-04-25T05:46:57;11.40;99.90
19263;DHT22;9765;52.354;20.884;2023-04-25T05:49:24;11.40;99.90
19263;DHT22;9765;52.354;20.884;2023-04-25T05:51:51;11.40;99.90
19263;DHT22;9765;52.354;20.884;2023-04-25T05:54:18;11.40;99.90
19263;DHT22;9765;52.354;20.884;2023-04-25T05:56:44;11.30;99.90
19263;DHT22;9765;52.354;20.884;2023-04-25T05:59:11;11.30;99.90
19263;DHT22;9765;52.354;20.884;2023-04-25T06:01:38;11.20;99.90
19263;DHT22;9765;52.354;20.884;2023-04-25T06:04:07;11.20;99.90
19263;DHT22;9765;52.354;20.884;2023-04-25T06:06:33;11.20;99.90
19263;DHT22;9765;52.354;20.884;2023-04-25T06:09:00;11.20;99.90
19263;DHT22;9765;52.354;20.884;2023-04-25T06:11:27;11.20;99.90
19263;DHT22;9765;52.354;20.884;2023-04-25T06:13:53;11.20;99.90
19263;DHT22;9765;52.354;20.884;2023-04-25T06:16:20;11.20;99.90
19263;DHT22;9765;52.354;20.884;2023-04-25T06:18:47;11.20;99.90
19263;DHT22;9765;52.354;20.884;2023-04-25T06:21:15;11.20;99.90
19263;DHT22;9765;52.354;20.884;2023-04-25T06:23:42;11.20;99.90
19263;DHT22;9765;52.354;20.884;2023-04-25T06:26:08;11.30;99.90
19263;DHT22;9765;52.354;20.884;2023-04-25T06:28:35;11.30;99.90
19263;DHT22;9765;52.354;20.884;2023-04-25T06:31:02;11.20;99.90
19263;DHT22;9765;52.354;20.884;2023-04-25T06:33:29;11.20;99.90
19263;DHT22;9765;52.354;20.884;2023-04-25T06:35:55;11.20;99.90
19263;DHT22;9765;52.354;20.884;2023-04-25T06:38:23;11.20;99.90
19263;DHT22;9765;52.354;20.884;2023-04-25T06:40:50;11.20;99.90
19263;DHT22;9765;52.354;20.884;2023-04-25T06:43:17;11.20;99.90
19263;DHT22;9765;52.354;20.884;2023-04-25T06:45:44;11.20;99.90
19263;DHT22;9765;52.354;20.884;2023-04-25T06:48:11;11.10;99.90
19263;DHT22;9765;52.354;20.884;2023-04-25T06:50:37;11.00;99.90
19263;DHT22;9765;52.354;20.884;2023-04-25T06:53:04;10.90;99.90
19263;DHT22;9765;52.354;20.884;2023-04-25T06:55:32;10.90;99.90
19263;DHT22;9765;52.354;20.884;2023-04-25T06:58:00;10.80;99.90
19263;DHT22;9765;52.354;20.884;2023-04-25T07:00:27;10.80;99.90
19263;DHT22;9765;52.354;20.884;2023-04-25T07:02:53;10.80;99.90
19263;DHT22;9765;52.354;20.884;2023-04-25T07:05:20;10.70;99.90
19263;DHT22;9765;52.354;20.884;2023-04-25T07:07:47;10.70;99.90
19263;DHT22;9765;52.354;20.884;2023-04-25T07:10:14;10.70;99.90
19263;DHT22;9765;52.354;20.884;2023-04-25T07:12:42;10.70;99.90
19263;DHT22;9765;52.354;20.884;2023-04-25T07:15:09;10.70;99.90
19263;DHT22;9765;52.354;20.884;2023-04-25T07:17:37;10.80;99.90
19263;DHT22;9765;52.354;20.884;2023-04-25T07:20:04;10.70;99.90
19263;DHT22;9765;52.354;20.884;2023-04-25T07:22:33;10.70;99.90
19263;DHT22;9765;52.354;20.884;2023-04-25T07:25:00;10.80;99.90
19263;DHT22;9765;52.354;20.884;2023-04-25T07:27:26;10.90;99.90
19263;DHT22;9765;52.354;20.884;2023-04-25T07:29:55;11.10;99.90
19263;DHT22;9765;52.354;20.884;2023-04-25T07:32:21;11.20;99.90
19263;DHT22;9765;52.354;20.884;2023-04-25T07:34:48;11.30;99.90
19263;DHT22;9765;52.354;20.884;2023-04-25T07:37:16;11.50;99.90
19263;DHT22;9765;52.354;20.884;2023-04-25T07:39:44;11.40;99.90
19263;DHT22;9765;52.354;20.884;2023-04-25T07:42:11;11.60;99.90
19263;DHT22;9765;52.354;20.884;2023-04-25T07:44:38;11.70;99.90
19263;DHT22;9765;52.354;20.884;2023-04-25T07:47:07;11.70;99.90
19263;DHT22;9765;52.354;20.884;2023-04-25T07:49:34;11.60;99.90
19263;DHT22;9765;52.354;20.884;2023-04-25T07:52:01;11.60;99.90
19263;DHT22;9765;52.354;20.884;2023-04-25T07:54:28;11.60;99.90
19263;DHT22;9765;52.354;20.884;2023-04-25T07:56:55;11.60;99.90
19263;DHT22;9765;52.354;20.884;2023-04-25T07:59:22;11.60;99.90
19263;DHT22;9765;52.354;20.884;2023-04-25T08:01:49;11.40;99.90
19263;DHT22;9765;52.354;20.884;2023-04-25T08:04:17;11.50;99.90
19263;DHT22;9765;52.354;20.884;2023-04-25T08:06:44;11.60;99.90
19263;DHT22;9765;52.354;20.884;2023-04-25T08:09:11;11.70;99.90
19263;DHT22;9765;52.354;20.884;2023-04-25T08:11:37;11.60;99.90
19263;DHT22;9765;52.354;20.884;2023-04-25T08:14:05;11.60;99.90
19263;DHT22;9765;52.354;20.884;2023-04-25T08:16:32;11.70;99.90
19263;DHT22;9765;52.354;20.884;2023-04-25T08:18:59;11.80;99.90
19263;DHT22;9765;52.354;20.884;2023-04-25T08:21:27;11.70;99.90
19263;DHT22;9765;52.354;20.884;2023-04-25T08:23:54;11.80;99.90
19263;DHT22;9765;52.354;20.884;2023-04-25T08:26:23;12.00;99.90
19263;DHT22;9765;52.354;20.884;2023-04-25T08:28:50;12.10;99.90
19263;DHT22;9765;52.354;20.884;2023-04-25T08:31:17;12.20;99.90
19263;DHT22;9765;52.354;20.884;2023-04-25T08:33:44;12.10;99.90
19263;DHT22;9765;52.354;20.884;2023-04-25T08:36:11;11.90;99.90
19263;DHT22;9765;52.354;20.884;2023-04-25T08:38:39;11.80;99.90
19263;DHT22;9765;52.354;20.884;2023-04-25T08:41:06;11.80;99.90
19263;DHT22;9765;52.354;20.884;2023-04-25T08:43:34;12.00;99.90
19263;DHT22;9765;52.354;20.884;2023-04-25T08:46:01;11.50;99.90
19263;DHT22;9765;52.354;20.884;2023-04-25T08:48:29;11.40;99.90
19263;DHT22;9765;52.354;20.884;2023-04-25T08:50:58;11.40;99.90
19263;DHT22;9765;52.354;20.884;2023-04-25T08:53:26;11.40;99.90
19263;DHT22;9765;52.354;20.884;2023-04-25T08:55:58;11.40;99.90
19263;DHT22;9765;52.354;20.884;2023-04-25T08:58:27;11.90;99.90
19263;DHT22;9765;52.354;20.884;2023-04-25T09:00:54;11.50;99.90
19263;DHT22;9765;52.354;20.884;2023-04-25T09:03:21;11.40;99.90
19263;DHT22;9765;52.354;20.884;2023-04-25T09:05:49;11.40;99.90
19263;DHT22;9765;52.354;20.884;2023-04-25T09:08:16;11.40;99.90
19263;DHT22;9765;52.354;20.884;2023-04-25T09:10:45;11.50;99.90
19263;DHT22;9765;52.354;20.884;2023-04-25T09:13:20;11.50;99.90
19263;DHT22;9765;52.354;20.884;2023-04-25T09:15:51;11.50;99.90
19263;DHT22;9765;52.354;20.884;2023-04-25T09:18:25;11.60;99.90
19263;DHT22;9765;52.354;20.884;2023-04-25T09:20:52;11.80;99.90
19263;DHT22;9765;52.354;20.884;2023-04-25T09:23:20;11.90;99.90
19263;DHT22;9765;52.354;20.884;2023-04-25T09:25:48;11.80;99.90
19263;DHT22;9765;52.354;20.884;2023-04-25T09:28:23;11.80;99.90
19263;DHT22;9765;52.354;20.884;2023-04-25T09:30:54;11.90;99.90
19263;DHT22;9765;52.354;20.884;2023-04-25T09:33:27;12.00;99.90
19263;DHT22;9765;52.354;20.884;2023-04-25T09:35:56;11.90;99.90
19263;DHT22;9765;52.354;20.884;2023-04-25T09:38:29;11.90;99.90
19263;DHT22;9765;52.354;20.884;2023-04-25T09:40:56;11.70;99.90
19263;DHT22;9765;52.354;20.884;2023-04-25T09:43:25;11.70;99.90
19263;DHT22;9765;52.354;20.884;2023-04-25T09:45:54;11.70;99.90
19263;DHT22;9765;52.354;20.884;2023-04-25T09:48:24;11.60;99.90
19263;DHT22;9765;52.354;20.884;2023-04-25T09:51:04;11.60;99.90
19263;DHT22;9765;52.354;20.884;2023-04-25T09:53:31;11.60;99.90
19263;DHT22;9765;52.354;20.884;2023-04-25T09:55:59;11.50;99.90
19263;DHT22;9765;52.354;20.884;2023-04-25T09:58:29;11.60;99.90
19263;DHT22;9765;52.354;20.884;2023-04-25T10:00:59;11.60;99.90
19263;DHT22;9765;52.354;20.884;2023-04-25T10:03:26;11.60;99.90
19263;DHT22;9765;52.354;20.884;2023-04-25T10:05:53;11.50;99.90
19263;DHT22;9765;52.354;20.884;2023-04-25T10:08:22;11.50;99.90
19263;DHT22;9765;52.354;20.884;2023-04-25T10:10:52;11.40;99.90
19263;DHT22;9765;52.354;20.884;2023-04-25T10:13:19;11.30;99.90
19263;DHT22;9765;52.354;20.884;2023-04-25T10:15:47;11.30;99.90
19263;DHT22;9765;52.354;20.884;2023-04-25T10:18:15;11.30;99.90
19263;DHT22;9765;52.354;20.884;2023-04-25T10:20:43;11.20;99.90
19263;DHT22;9765;52.354;20.884;2023-04-25T10:23:13;11.20;99.90
19263;DHT22;9765;52.354;20.884;2023-04-25T10:25:41;11.20;99.90
19263;DHT22;9765;52.354;20.884;2023-04-25T10:28:08;11.10;99.90
19263;DHT22;9765;52.354;20.884;2023-04-25T10:30:35;11.10;99.90
19263;DHT22;9765;52.354;20.884;2023-04-25T10:33:16;11.10;99.90
19263;DHT22;9765;52.354;20.884;2023-04-25T10:35:45;11.20;99.90
19263;DHT22;9765;52.354;20.884;2023-04-25T10:38:14;11.20;99.90
19263;DHT22;9765;52.354;20.884;2023-04-25T10:40:41;11.20;99.90
19263;DHT22;9765;52.354;20.884;2023-04-25T10:43:33;11.20;99.90
19263;DHT22;9765;52.354;20.884;2023-04-25T10:46:00;11.20;99.90
19263;DHT22;9765;52.354;20.884;2023-04-25T10:48:29;11.30;99.90
19263;DHT22;9765;52.354;20.884;2023-04-25T10:51:07;11.30;99.90
19263;DHT22;9765;52.354;20.884;2023-04-25T10:53:38;11.40;99.90
19263;DHT22;9765;52.354;20.884;2023-04-25T10:56:10;11.40;99.90
19263;DHT22;9765;52.354;20.884;2023-04-25T10:58:42;11.30;99.90
19263;DHT22;9765;52.354;20.884;2023-04-25T11:01:09;11.30;99.90
19263;DHT22;9765;52.354;20.884;2023-04-25T11:03:40;11.40;99.90
19263;DHT22;9765;52.354;20.884;2023-04-25T11:06:15;11.40;99.90
19263;DHT22;9765;52.354;20.884;2023-04-25T11:08:48;11.40;99.90
19263;DHT22;9765;52.354;20.884;2023-04-25T11:11:16;11.40;99.90
19263;DHT22;9765;52.354;20.884;2023-04-25T11:13:42;11.50;99.90
19263;DHT22;9765;52.354;20.884;2023-04-25T11:16:09;11.50;99.90
19263;DHT22;9765;52.354;20.884;2023-04-25T11:18:36;11.50;99.90
19263;DHT22;9765;52.354;20.884;2023-04-25T11:21:05;11.60;99.90
19263;DHT22;9765;52.354;20.884;2023-04-25T11:23:32;11.60;99.90
19263;DHT22;9765;52.354;20.884;2023-04-25T11:25:59;11.70;99.90
19263;DHT22;9765;52.354;20.884;2023-04-25T11:28:27;11.60;99.90
19263;DHT22;9765;52.354;20.884;2023-04-25T11:30:53;11.60;99.90
19263;DHT22;9765;52.354;20.884;2023-04-25T11:33:23;11.70;99.90
19263;DHT22;9765;52.354;20.884;2023-04-25T11:35:51;11.80;99.90
19263;DHT22;9765;52.354;20.884;2023-04-25T11:38:20;11.80;99.90
19263;DHT22;9765;52.354;20.884;2023-04-25T11:40:50;11.80;99.90
19263;DHT22;9765;52.354;20.884;2023-04-25T11:43:17;11.70;99.90
19263;DHT22;9765;52.354;20.884;2023-04-25T11:45:46;11.80;99.90
19263;DHT22;9765;52.354;20.884;2023-04-25T11:48:13;11.90;99.90
19263;DHT22;9765;52.354;20.884;2023-04-25T11:50:41;12.00;99.90
19263;DHT22;9765;52.354;20.884;2023-04-25T11:53:08;12.00;99.90
19263;DHT22;9765;52.354;20.884;2023-04-25T11:55:37;12.00;99.90
19263;DHT22;9765;52.354;20.884;2023-04-25T11:58:05;12.00;99.90
19263;DHT22;9765;52.354;20.884;2023-04-25T12:00:32;12.00;99.90
19263;DHT22;9765;52.354;20.884;2023-04-25T12:02:59;12.10;99.90
19263;DHT22;9765;52.354;20.884;2023-04-25T12:05:29;12.10;99.90
19263;DHT22;9765;52.354;20.884;2023-04-25T12:08:09;12.00;99.90
19263;DHT22;9765;52.354;20.884;2023-04-25T12:10:38;12.00;99.90
19263;DHT22;9765;52.354;20.884;2023-04-25T12:13:19;12.00;99.90
19263;DHT22;9765;52.354;20.884;2023-04-25T12:15:46;12.10;99.90
19263;DHT22;9765;52.354;20.884;2023-04-25T12:18:13;12.00;99.90
19263;DHT22;9765;52.354;20.884;2023-04-25T12:20:39;12.00;99.90
19263;DHT22;9765;52.354;20.884;2023-04-25T12:23:08;12.00;99.90
19263;DHT22;9765;52.354;20.884;2023-04-25T12:25:39;11.90;99.90
19263;DHT22;9765;52.354;20.884;2023-04-25T12:28:13;11.90;99.90
19263;DHT22;9765;52.354;20.884;2023-04-25T12:30:56;11.90;99.90
19263;DHT22;9765;52.354;20.884;2023-04-25T12:33:24;11.90;99.90
19263;DHT22;9765;52.354;20.884;2023-04-25T12:35:52;11.90;99.90
19263;DHT22;9765;52.354;20.884;2023-04-25T12:38:23;11.90;99.90
19263;DHT22;9765;52.354;20.884;2023-04-25T12:40:56;11.80;99.90
19263;DHT22;9765;52.354;20.884;2023-04-25T12:43:23;11.70;99.90
19263;DHT22;9765;52.354;20.884;2023-04-25T12:45:51;11.70;99.90
19263;DHT22;9765;52.354;20.884;2023-04-25T12:48:18;11.60;99.90
19263;DHT22;9765;52.354;20.884;2023-04-25T12:50:46;11.60;99.90
19263;DHT22;9765;52.354;20.884;2023-04-25T12:53:14;11.60;99.90
19263;DHT22;9765;52.354;20.884;2023-04-25T12:55:41;11.50;99.90
19263;DHT22;9765;52.354;20.884;2023-04-25T12:58:09;11.60;99.90
19263;DHT22;9765;52.354;20.884;2023-04-25T13:00:36;11.70;99.90
19263;DHT22;9765;52.354;20.884;2023-04-25T13:03:03;11.70;99.90
19263;DHT22;9765;52.354;20.884;2023-04-25T13:05:30;11.80;99.90
19263;DHT22;9765;52.354;20.884;2023-04-25T13:07:57;11.80;99.90
19263;DHT22;9765;52.354;20.884;2023-04-25T13:10:24;11.90;99.90
19263;DHT22;9765;52.354;20.884;2023-04-25T13:12:51;11.90;99.90
19263;DHT22;9765;52.354;20.884;2023-04-25T13:15:19;11.90;99.90
19263;DHT22;9765;52.354;20.884;2023-04-25T13:17:47;12.00;99.90
19263;DHT22;9765;52.354;20.884;2023-04-25T13:20:14;12.00;99.90
19263;DHT22;9765;52.354;20.884;2023-04-25T13:22:42;12.10;99.90
19263;DHT22;9765;52.354;20.884;2023-04-25T13:25:11;12.10;99.90
19263;DHT22;9765;52.354;20.884;2023-04-25T13:27:38;12.10;99.90
19263;DHT22;9765;52.354;20.884;2023-04-25T13:30:07;12.20;99.90
19263;DHT22;9765;52.354;20.884;2023-04-25T13:32:36;12.20;99.90
19263;DHT22;9765;52.354;20.884;2023-04-25T13:35:04;12.20;99.90
19263;DHT22;9765;52.354;20.884;2023-04-25T13:37:31;12.20;99.90
19263;DHT22;9765;52.354;20.884;2023-04-25T13:39:59;12.20;99.90
19263;DHT22;9765;52.354;20.884;2023-04-25T13:42:26;12.10;99.90
19263;DHT22;9765;52.354;20.884;2023-04-25T13:44:52;12.10;99.90
19263;DHT22;9765;52.354;20.884;2023-04-25T13:47:19;12.10;99.90
19263;DHT22;9765;52.354;20.884;2023-04-25T13:49:47;12.00;99.90
19263;DHT22;9765;52.354;20.884;2023-04-25T13:52:14;12.00;99.90
19263;DHT22;9765;52.354;20.884;2023-04-25T13:54:41;12.00;99.90
19263;DHT22;9765;52.354;20.884;2023-04-25T13:57:07;12.00;99.90
19263;DHT22;9765;52.354;20.884;2023-04-25T13:59:35;12.00;99.90
19263;DHT22;9765;52.354;20.884;2023-04-25T14:02:02;11.90;99.90
19263;DHT22;9765;52.354;20.884;2023-04-25T14:04:29;11.90;99.90
19263;DHT22;9765;52.354;20.884;2023-04-25T14:07:00;11.90;99.90
19263;DHT22;9765;52.354;20.884;2023-04-25T14:09:27;12.00;99.90
19263;DHT22;9765;52.354;20.884;2023-04-25T14:11:55;12.00;99.90
19263;DHT22;9765;52.354;20.884;2023-04-25T14:14:22;12.00;99.90
19263;DHT22;9765;52.354;20.884;2023-04-25T14:16:50;12.10;99.90
19263;DHT22;9765;52.354;20.884;2023-04-25T14:19:19;12.20;99.90
19263;DHT22;9765;52.354;20.884;2023-04-25T14:21:46;12.20;99.90
19263;DHT22;9765;52.354;20.884;2023-04-25T14:24:14;12.20;99.90
19263;DHT22;9765;52.354;20.884;2023-04-25T14:26:41;12.30;99.90
19263;DHT22;9765;52.354;20.884;2023-04-25T14:29:09;12.20;99.90
19263;DHT22;9765;52.354;20.884;2023-04-25T14:31:40;12.20;99.90
19263;DHT22;9765;52.354;20.884;2023-04-25T14:34:10;12.20;99.90
19263;DHT22;9765;52.354;20.884;2023-04-25T14:36:37;12.30;99.90
19263;DHT22;9765;52.354;20.884;2023-04-25T14:39:04;12.20;99.90
19263;DHT22;9765;52.354;20.884;2023-04-25T14:41:33;12.20;99.90
19263;DHT22;9765;52.354;20.884;2023-04-25T14:43:59;12.10;99.90
19263;DHT22;9765;52.354;20.884;2023-04-25T14:46:26;12.10;99.90
19263;DHT22;9765;52.354;20.884;2023-04-25T14:48:54;12.10;99.90
19263;DHT22;9765;52.354;20.884;2023-04-25T14:51:21;12.00;99.90
19263;DHT22;9765;52.354;20.884;2023-04-25T14:53:48;12.00;99.90
19263;DHT22;9765;52.354;20.884;2023-04-25T14:56:15;11.90;99.90
19263;DHT22;9765;52.354;20.884;2023-04-25T14:58:43;11.70;99.90
19263;DHT22;9765;52.354;20.884;2023-04-25T15:01:11;11.70;99.90
19263;DHT22;9765;52.354;20.884;2023-04-25T15:03:38;11.70;99.90
19263;DHT22;9765;52.354;20.884;2023-04-25T15:06:06;11.60;99.90
19263;DHT22;9765;52.354;20.884;2023-04-25T15:08:33;11.60;99.90
19263;DHT22;9765;52.354;20.884;2023-04-25T15:11:00;11.60;99.90
19263;DHT22;9765;52.354;20.884;2023-04-25T15:13:27;11.60;99.90
19263;DHT22;9765;52.354;20.884;2023-04-25T15:15:59;11.60;99.90
19263;DHT22;9765;52.354;20.884;2023-04-25T15:18:25;11.60;99.90
19263;DHT22;9765;52.354;20.884;2023-04-25T15:20:53;11.60;99.90
19263;DHT22;9765;52.354;20.884;2023-04-25T15:23:21;11.60;99.90
19263;DHT22;9765;52.354;20.884;2023-04-25T15:25:50;11.60;99.90
19263;DHT22;9765;52.354;20.884;2023-04-25T15:28:17;11.50;99.90
19263;DHT22;9765;52.354;20.884;2023-04-25T15:30:44;11.50;99.90
19263;DHT22;9765;52.354;20.884;2023-04-25T15:33:12;11.40;99.90
19263;DHT22;9765;52.354;20.884;2023-04-25T15:35:40;11.40;99.90
19263;DHT22;9765;52.354;20.884;2023-04-25T15:38:07;11.30;99.90
19263;DHT22;9765;52.354;20.884;2023-04-25T15:40:35;11.20;99.90
19263;DHT22;9765;52.354;20.884;2023-04-25T15:43:02;11.10;99.90
19263;DHT22;9765;52.354;20.884;2023-04-25T15:45:29;11.10;99.90
19263;DHT22;9765;52.354;20.884;2023-04-25T15:47:57;11.10;99.90
19263;DHT22;9765;52.354;20.884;2023-04-25T15:50:25;11.10;99.90
19263;DHT22;9765;52.354;20.884;2023-04-25T15:52:52;11.00;99.90
19263;DHT22;9765;52.354;20.884;2023-04-25T15:55:19;11.00;99.90
19263;DHT22;9765;52.354;20.884;2023-04-25T15:57:48;11.00;99.90
19263;DHT22;9765;52.354;20.884;2023-04-25T16:00:16;11.00;99.90
19263;DHT22;9765;52.354;20.884;2023-04-25T16:02:44;11.00;99.90
19263;DHT22;9765;52.354;20.884;2023-04-25T16:05:12;10.90;99.90
19263;DHT22;9765;52.354;20.884;2023-04-25T16:07:42;10.90;99.90
19263;DHT22;9765;52.354;20.884;2023-04-25T16:10:10;10.80;99.90
19263;DHT22;9765;52.354;20.884;2023-04-25T16:12:37;10.70;99.90
19263;DHT22;9765;52.354;20.884;2023-04-25T16:15:05;10.70;99.90
19263;DHT22;9765;52.354;20.884;2023-04-25T16:17:32;10.70;99.90
19263;DHT22;9765;52.354;20.884;2023-04-25T16:19:59;10.60;99.90
19263;DHT22;9765;52.354;20.884;2023-04-25T16:22:26;10.60;99.90
19263;DHT22;9765;52.354;20.884;2023-04-25T16:24:54;10.50;99.90
19263;DHT22;9765;52.354;20.884;2023-04-25T16:27:21;10.40;99.90
19263;DHT22;9765;52.354;20.884;2023-04-25T16:29:48;10.40;99.90
19263;DHT22;9765;52.354;20.884;2023-04-25T16:32:16;10.40;99.90
19263;DHT22;9765;52.354;20.884;2023-04-25T16:34:44;10.30;99.90
19263;DHT22;9765;52.354;20.884;2023-04-25T16:37:11;10.30;99.90
19263;DHT22;9765;52.354;20.884;2023-04-25T16:39:38;10.20;99.90
19263;DHT22;9765;52.354;20.884;2023-04-25T16:42:06;10.10;99.90
19263;DHT22;9765;52.354;20.884;2023-04-25T16:44:33;10.00;99.90
19263;DHT22;9765;52.354;20.884;2023-04-25T16:47:01;10.00;99.90
19263;DHT22;9765;52.354;20.884;2023-04-25T16:49:29;9.90;99.90
19263;DHT22;9765;52.354;20.884;2023-04-25T16:51:58;9.80;99.90
19263;DHT22;9765;52.354;20.884;2023-04-25T16:54:25;9.80;99.90
19263;DHT22;9765;52.354;20.884;2023-04-25T16:56:52;9.80;99.90
19263;DHT22;9765;52.354;20.884;2023-04-25T16:59:20;9.70;99.90
19263;DHT22;9765;52.354;20.884;2023-04-25T17:01:47;9.60;99.90
19263;DHT22;9765;52.354;20.884;2023-04-25T17:04:14;9.60;99.90
19263;DHT22;9765;52.354;20.884;2023-04-25T17:06:41;9.60;99.90
19263;DHT22;9765;52.354;20.884;2023-04-25T17:09:08;9.50;99.90
19263;DHT22;9765;52.354;20.884;2023-04-25T17:11:35;9.50;99.90
19263;DHT22;9765;52.354;20.884;2023-04-25T17:14:02;9.50;99.90
19263;DHT22;9765;52.354;20.884;2023-04-25T17:16:35;9.50;99.90
19263;DHT22;9765;52.354;20.884;2023-04-25T17:19:03;9.40;99.90
19263;DHT22;9765;52.354;20.884;2023-04-25T17:21:30;9.40;99.90
19263;DHT22;9765;52.354;20.884;2023-04-25T17:23:57;9.40;99.90
